Time;durP1;ratioP1;P1;durP2;ratioP2;P2;SDS_P1;SDS_P2;PMS_P1;PMS_P2;Temp;Humidity;BMP_temperature;BMP_pressure;BME280_temperature;BME280_humidity;BME280_pressure;Samples;Min_cycle;Max_cycle;Signal;HPM_P1;HPM_P2
2020/12/28 00:02:00;;;;;;;6.25;2.40;;;;;;;;;;4971809;28;20113;-79
2020/12/28 00:04:27;;;;;;;6.13;2.35;;;;;;;;;;4972434;28;20074;-78
2020/12/28 00:06:53;;;;;;;5.60;2.38;;;;;;;;;;4971128;28;20086;-78
2020/12/28 00:09:20;;;;;;;4.80;2.22;;;;;;;;;;4972118;28;20165;-78
2020/12/28 00:11:46;;;;;;;4.43;2.20;;;;;;;;;;4972919;28;20137;-78
2020/12/28 00:14:13;;;;;;;4.95;1.88;;;;;;;;;;4973053;28;20131;-79
2020/12/28 00:16:40;;;;;;;8.57;2.30;;;;;;;;;;4965856;28;20129;-78
2020/12/28 00:19:07;;;;;;;4.68;2.13;;;;;;;;;;4970400;28;20129;-78
2020/12/28 00:21:34;;;;;;;5.38;2.20;;;;;;;;;;4971971;28;20094;-78
2020/12/28 00:24:01;;;;;;;7.70;2.50;;;;;;;;;;4971875;28;20090;-78
2020/12/28 00:26:27;;;;;;;4.90;2.25;;;;;;;;;;4972085;28;20093;-78
2020/12/28 00:28:54;;;;;;;5.82;2.20;;;;;;;;;;4971955;28;20107;-78
2020/12/28 00:31:21;;;;;;;6.28;2.53;;;;;;;;;;4970568;28;20057;-78
2020/12/28 00:33:48;;;;;;;7.25;2.65;;;;;;;;;;4961156;28;20390;-78
2020/12/28 00:36:15;;;;;;;4.55;2.40;;;;;;;;;;4968679;28;20047;-78
2020/12/28 00:38:41;;;;;;;4.47;2.28;;;;;;;;;;4969802;28;20086;-78
2020/12/28 00:41:10;;;;;;;8.18;2.35;;;;;;;;;;4970411;28;20467;-78
2020/12/28 00:43:37;;;;;;;5.13;2.40;;;;;;;;;;4962893;28;20063;-76
2020/12/28 00:46:06;;;;;;;7.03;2.58;;;;;;;;;;4971202;28;20717;-76
2020/12/28 00:48:33;;;;;;;4.35;2.40;;;;;;;;;;4971874;28;20130;-76
2020/12/28 00:51:00;;;;;;;9.25;3.22;;;;;;;;;;4974000;28;20090;-76
2020/12/28 00:53:26;;;;;;;4.50;2.10;;;;;;;;;;4962957;28;20130;-77
2020/12/28 00:55:53;;;;;;;4.32;2.17;;;;;;;;;;4955521;28;20075;-77
2020/12/28 00:58:19;;;;;;;6.93;2.70;;;;;;;;;;4955229;28;20512;-76
2020/12/28 01:00:46;;;;;;;5.45;2.33;;;;;;;;;;4953831;28;20051;-76
2020/12/28 01:03:13;;;;;;;4.35;2.20;;;;;;;;;;4957788;28;20047;-76
2020/12/28 01:05:40;;;;;;;6.05;2.38;;;;;;;;;;4973363;28;20074;-76
2020/12/28 01:08:06;;;;;;;5.72;2.70;;;;;;;;;;4965390;28;20138;-76
2020/12/28 01:10:33;;;;;;;5.03;2.30;;;;;;;;;;4955072;28;20151;-76
2020/12/28 01:12:59;;;;;;;7.22;2.80;;;;;;;;;;4961755;28;20062;-76
2020/12/28 01:15:26;;;;;;;8.95;2.63;;;;;;;;;;4974394;28;20109;-76
2020/12/28 01:17:54;;;;;;;6.70;2.30;;;;;;;;;;4972360;28;20078;-76
2020/12/28 01:20:21;;;;;;;5.13;2.50;;;;;;;;;;4973488;28;20051;-76
2020/12/28 01:22:48;;;;;;;5.03;2.53;;;;;;;;;;4968759;28;20065;-76
2020/12/28 01:25:16;;;;;;;4.75;2.03;;;;;;;;;;4969474;28;20488;-76
2020/12/28 01:27:42;;;;;;;4.28;2.10;;;;;;;;;;4973117;28;20174;-76
2020/12/28 01:30:09;;;;;;;4.43;2.13;;;;;;;;;;4970586;28;20082;-76
2020/12/28 01:32:36;;;;;;;5.38;2.42;;;;;;;;;;4969513;28;20134;-76
2020/12/28 01:35:02;;;;;;;5.65;2.53;;;;;;;;;;4954757;28;20086;-76
2020/12/28 01:37:29;;;;;;;3.88;2.17;;;;;;;;;;4954780;28;20157;-76
2020/12/28 01:39:57;;;;;;;3.45;2.03;;;;;;;;;;4954641;28;20055;-76
2020/12/28 01:42:25;;;;;;;4.85;2.30;;;;;;;;;;4955516;28;20086;-76
2020/12/28 01:44:52;;;;;;;5.53;2.50;;;;;;;;;;4973853;28;20051;-76
2020/12/28 01:47:19;;;;;;;6.05;2.35;;;;;;;;;;4973616;28;20467;-76
2020/12/28 01:49:45;;;;;;;9.82;2.30;;;;;;;;;;4971297;28;20467;-76
2020/12/28 01:52:12;;;;;;;6.85;2.58;;;;;;;;;;4972917;28;20097;-76
2020/12/28 01:54:39;;;;;;;3.53;1.80;;;;;;;;;;4954320;28;20540;-76
2020/12/28 01:57:06;;;;;;;4.85;2.38;;;;;;;;;;4954269;28;20134;-76
2020/12/28 01:59:32;;;;;;;3.10;1.77;;;;;;;;;;4952828;29;20051;-76
2020/12/28 02:02:00;;;;;;;5.63;2.20;;;;;;;;;;4952560;28;20086;-76
2020/12/28 02:04:27;;;;;;;4.60;1.90;;;;;;;;;;4971001;28;20103;-77
2020/12/28 02:06:54;;;;;;;4.47;1.75;;;;;;;;;;4967938;28;20137;-75
2020/12/28 02:09:20;;;;;;;3.72;1.90;;;;;;;;;;4972718;28;20508;-75
2020/12/28 02:11:47;;;;;;;4.00;2.20;;;;;;;;;;4972568;28;20059;-76
2020/12/28 02:14:14;;;;;;;4.05;2.15;;;;;;;;;;4971099;28;20141;-75
2020/12/28 02:16:40;;;;;;;4.53;2.05;;;;;;;;;;4972525;28;20134;-76
2020/12/28 02:19:07;;;;;;;5.13;1.90;;;;;;;;;;4973158;28;20043;-76
2020/12/28 02:21:38;;;;;;;5.05;2.10;;;;;;;;;;4973060;28;20082;-75
2020/12/28 02:24:05;;;;;;;4.35;2.05;;;;;;;;;;4970864;28;20119;-75
2020/12/28 02:26:31;;;;;;;5.53;2.08;;;;;;;;;;4971420;28;20055;-76
2020/12/28 02:28:58;;;;;;;4.82;2.00;;;;;;;;;;4970995;28;20051;-76
2020/12/28 02:31:24;;;;;;;6.00;2.08;;;;;;;;;;4970823;28;20504;-76
2020/12/28 02:33:51;;;;;;;3.38;1.90;;;;;;;;;;4959709;28;20055;-76
2020/12/28 02:36:18;;;;;;;4.82;1.73;;;;;;;;;;4952837;28;20134;-76
2020/12/28 02:38:44;;;;;;;6.25;2.08;;;;;;;;;;4952436;28;20090;-76
2020/12/28 02:41:11;;;;;;;4.25;2.03;;;;;;;;;;4951227;29;20051;-76
2020/12/28 02:43:37;;;;;;;3.80;1.80;;;;;;;;;;4961658;28;20074;-76
2020/12/28 02:46:04;;;;;;;4.95;2.45;;;;;;;;;;4966232;28;20055;-75
2020/12/28 02:48:31;;;;;;;5.47;2.00;;;;;;;;;;4971232;28;20559;-76
2020/12/28 02:51:00;;;;;;;4.53;2.10;;;;;;;;;;4972307;28;20093;-76
2020/12/28 02:53:27;;;;;;;8.55;1.88;;;;;;;;;;4964389;28;20047;-75
2020/12/28 02:55:54;;;;;;;4.32;2.17;;;;;;;;;;4959405;28;20460;-76
2020/12/28 02:58:20;;;;;;;5.55;2.08;;;;;;;;;;4970922;28;20554;-75
2020/12/28 03:00:47;;;;;;;3.30;1.90;;;;;;;;;;4968611;28;20053;-75
2020/12/28 03:03:14;;;;;;;5.25;2.15;;;;;;;;;;4966332;28;20130;-76
2020/12/28 03:05:40;;;;;;;5.40;1.95;;;;;;;;;;4952183;28;20055;-76
2020/12/28 03:08:07;;;;;;;4.47;1.85;;;;;;;;;;4952821;28;20073;-75
2020/12/28 03:10:34;;;;;;;22.40;2.58;;;;;;;;;;4953252;28;20102;-75
2020/12/28 03:13:00;;;;;;;4.78;1.92;;;;;;;;;;4956159;28;20114;-76
2020/12/28 03:15:27;;;;;;;3.17;1.92;;;;;;;;;;4967606;28;20738;-76
2020/12/28 03:17:54;;;;;;;4.85;2.08;;;;;;;;;;4969714;28;20049;-75
2020/12/28 03:20:20;;;;;;;3.50;1.90;;;;;;;;;;4971948;28;20086;-75
2020/12/28 03:22:47;;;;;;;4.15;2.20;;;;;;;;;;4969702;28;20162;-74
2020/12/28 03:25:14;;;;;;;3.65;1.85;;;;;;;;;;4952571;28;20513;-75
2020/12/28 03:27:40;;;;;;;4.32;1.98;;;;;;;;;;4951047;29;20086;-74
2020/12/28 03:30:07;;;;;;;4.22;2.50;;;;;;;;;;4951227;29;20133;-75
2020/12/28 03:32:34;;;;;;;5.13;2.17;;;;;;;;;;4950494;28;20051;-75
2020/12/28 03:35:18;;;;;;;5.38;2.40;;;;;;;;;;4966897;28;20097;-75
2020/12/28 03:37:45;;;;;;;5.88;2.50;;;;;;;;;;4968894;28;20134;-75
2020/12/28 03:40:11;;;;;;;6.57;2.10;;;;;;;;;;4964571;28;20055;-74
2020/12/28 03:42:38;;;;;;;5.93;2.40;;;;;;;;;;4971041;28;20082;-74
2020/12/28 03:45:05;;;;;;;4.68;2.40;;;;;;;;;;4969871;28;20050;-75
2020/12/28 03:47:31;;;;;;;8.82;2.90;;;;;;;;;;4971737;28;20094;-75
2020/12/28 03:49:58;;;;;;;7.80;3.38;;;;;;;;;;4971516;28;20152;-74
2020/12/28 03:52:25;;;;;;;6.65;3.38;;;;;;;;;;4971122;28;20137;-74
2020/12/28 03:54:53;;;;;;;6.72;3.50;;;;;;;;;;4969549;28;20498;-75
2020/12/28 03:57:19;;;;;;;10.80;3.60;;;;;;;;;;4970875;28;20139;-74
2020/12/28 03:59:46;;;;;;;11.07;3.65;;;;;;;;;;4964465;28;20134;-75
2020/12/28 04:02:12;;;;;;;8.63;4.15;;;;;;;;;;4960156;28;20091;-74
2020/12/28 04:04:40;;;;;;;9.27;3.83;;;;;;;;;;4966011;28;20055;-75
2020/12/28 04:07:10;;;;;;;9.50;4.00;;;;;;;;;;4967002;28;20113;-75
2020/12/28 04:09:39;;;;;;;6.78;3.53;;;;;;;;;;4970208;28;20058;-75
2020/12/28 04:12:06;;;;;;;15.07;3.95;;;;;;;;;;4971365;28;20643;-74
2020/12/28 04:14:32;;;;;;;7.90;3.47;;;;;;;;;;4965991;28;20059;-74
2020/12/28 04:16:59;;;;;;;9.68;4.18;;;;;;;;;;4957265;28;20081;-75
2020/12/28 04:19:25;;;;;;;8.57;4.00;;;;;;;;;;4965214;28;20307;-75
2020/12/28 04:21:53;;;;;;;11.45;3.90;;;;;;;;;;4970542;28;20050;-75
2020/12/28 04:24:20;;;;;;;7.45;3.85;;;;;;;;;;4953668;28;20082;-74
2020/12/28 04:26:47;;;;;;;7.10;3.90;;;;;;;;;;4951608;28;20194;-74
2020/12/28 04:29:14;;;;;;;9.75;4.40;;;;;;;;;;4951924;28;20715;-74
2020/12/28 04:31:42;;;;;;;8.52;3.78;;;;;;;;;;4951011;28;20055;-75
2020/12/28 04:34:09;;;;;;;11.10;4.30;;;;;;;;;;4959098;28;20078;-75
2020/12/28 04:36:38;;;;;;;11.13;4.18;;;;;;;;;;4968259;28;20415;-74
2020/12/28 04:39:05;;;;;;;9.23;4.60;;;;;;;;;;4967850;28;20031;-74
2020/12/28 04:41:32;;;;;;;9.23;4.63;;;;;;;;;;4969687;28;20468;-74
2020/12/28 04:43:59;;;;;;;10.38;4.50;;;;;;;;;;4964241;28;20074;-75
2020/12/28 04:46:29;;;;;;;12.25;4.80;;;;;;;;;;4968146;28;20098;-75
2020/12/28 04:48:56;;;;;;;13.93;5.57;;;;;;;;;;4970544;28;20086;-75
2020/12/28 04:51:23;;;;;;;10.95;4.90;;;;;;;;;;4967165;28;20174;-75
2020/12/28 04:53:53;;;;;;;11.95;4.60;;;;;;;;;;4949243;29;20095;-75
2020/12/28 04:56:21;;;;;;;9.18;4.45;;;;;;;;;;4950911;28;20441;-75
2020/12/28 04:58:48;;;;;;;11.63;4.88;;;;;;;;;;4951454;28;20051;-75
2020/12/28 05:01:16;;;;;;;11.85;4.93;;;;;;;;;;4951330;28;20106;-75
2020/12/28 05:03:42;;;;;;;14.10;5.63;;;;;;;;;;4963855;28;20075;-75
2020/12/28 05:06:09;;;;;;;10.60;5.20;;;;;;;;;;4964973;28;20074;-75
2020/12/28 05:08:42;;;;;;;9.05;4.75;;;;;;;;;;4951129;28;20142;-75
2020/12/28 05:11:09;;;;;;;7.30;4.10;;;;;;;;;;4951631;28;20053;-75
2020/12/28 05:13:36;;;;;;;12.45;5.50;;;;;;;;;;4970454;28;20432;-75
2020/12/28 05:16:03;;;;;;;12.13;5.10;;;;;;;;;;4970044;28;20387;-75
2020/12/28 05:18:29;;;;;;;13.93;5.63;;;;;;;;;;4970598;28;20459;-75
2020/12/28 05:20:56;;;;;;;14.57;5.00;;;;;;;;;;4970056;28;20082;-75
2020/12/28 05:23:23;;;;;;;11.65;5.03;;;;;;;;;;4969932;28;20043;-75
2020/12/28 05:25:50;;;;;;;13.00;6.25;;;;;;;;;;4964098;28;20085;-75
2020/12/28 05:28:19;;;;;;;12.50;5.20;;;;;;;;;;4960499;28;20083;-74
2020/12/28 05:30:46;;;;;;;12.18;5.72;;;;;;;;;;4954749;28;20141;-75
2020/12/28 05:33:13;;;;;;;14.75;5.82;;;;;;;;;;4969695;28;20142;-74
2020/12/28 05:35:41;;;;;;;16.02;5.20;;;;;;;;;;4973803;28;20488;-75
2020/12/28 05:38:08;;;;;;;14.95;5.60;;;;;;;;;;4972438;28;20075;-75
2020/12/28 05:40:36;;;;;;;11.23;5.13;;;;;;;;;;4974135;28;20130;-75
2020/12/28 05:43:03;;;;;;;12.20;5.68;;;;;;;;;;4968740;28;20133;-75
2020/12/28 05:45:33;;;;;;;12.15;5.28;;;;;;;;;;4966300;28;20085;-75
2020/12/28 05:48:01;;;;;;;14.73;6.30;;;;;;;;;;4973863;28;20483;-75
2020/12/28 05:50:31;;;;;;;11.55;5.85;;;;;;;;;;4970777;28;20429;-75
2020/12/28 05:52:59;;;;;;;14.60;6.00;;;;;;;;;;4959442;28;20115;-75
2020/12/28 05:55:26;;;;;;;11.73;5.95;;;;;;;;;;4953088;28;20142;-75
2020/12/28 05:57:57;;;;;;;13.98;6.15;;;;;;;;;;4952052;29;20070;-75
2020/12/28 06:00:24;;;;;;;12.30;5.57;;;;;;;;;;4953560;28;20079;-75
2020/12/28 06:02:52;;;;;;;11.23;5.20;;;;;;;;;;4964592;28;20179;-75
2020/12/28 06:05:21;;;;;;;14.60;6.53;;;;;;;;;;4969142;28;20126;-75
2020/12/28 06:07:48;;;;;;;13.65;5.65;;;;;;;;;;4972766;28;20131;-75
2020/12/28 06:10:15;;;;;;;15.07;6.20;;;;;;;;;;4973290;28;20407;-75
2020/12/28 06:12:42;;;;;;;11.40;6.10;;;;;;;;;;4963682;28;20117;-75
2020/12/28 06:15:21;;;;;;;15.98;6.57;;;;;;;;;;4969477;28;20101;-74
2020/12/28 06:17:48;;;;;;;18.30;6.22;;;;;;;;;;4964942;28;20070;-74
2020/12/28 06:20:15;;;;;;;18.27;6.00;;;;;;;;;;4972997;28;20055;-75
2020/12/28 06:22:42;;;;;;;14.85;6.78;;;;;;;;;;4970423;28;20051;-74
2020/12/28 06:25:12;;;;;;;14.65;6.70;;;;;;;;;;4968924;28;20117;-74
2020/12/28 06:27:41;;;;;;;15.35;5.53;;;;;;;;;;4966989;28;20062;-74
2020/12/28 06:30:12;;;;;;;13.75;6.20;;;;;;;;;;4973032;28;20137;-75
2020/12/28 06:32:40;;;;;;;12.50;5.22;;;;;;;;;;4967021;28;20234;-75
2020/12/28 06:35:08;;;;;;;12.88;6.50;;;;;;;;;;4963469;28;20134;-75
2020/12/28 06:37:38;;;;;;;14.77;6.00;;;;;;;;;;4971614;28;20133;-76
2020/12/28 06:40:05;;;;;;;15.52;6.35;;;;;;;;;;4970685;28;20389;-75
2020/12/28 06:42:32;;;;;;;15.07;6.30;;;;;;;;;;4973149;28;20136;-76
2020/12/28 06:44:58;;;;;;;12.93;5.95;;;;;;;;;;4973277;28;20433;-76
2020/12/28 06:47:33;;;;;;;11.82;5.78;;;;;;;;;;4968092;28;20502;-75
2020/12/28 06:49:59;;;;;;;16.75;6.68;;;;;;;;;;4968079;28;20055;-75
2020/12/28 06:52:26;;;;;;;14.60;5.80;;;;;;;;;;4972052;28;20157;-75
2020/12/28 06:54:53;;;;;;;26.05;11.57;;;;;;;;;;4973234;28;20165;-75
2020/12/28 06:57:23;;;;;;;15.52;6.45;;;;;;;;;;4976172;28;20132;-75
2020/12/28 06:59:50;;;;;;;12.98;6.28;;;;;;;;;;4957041;28;20055;-75
2020/12/28 07:02:17;;;;;;;15.73;7.22;;;;;;;;;;4952031;28;20130;-75
2020/12/28 07:04:44;;;;;;;13.45;6.25;;;;;;;;;;4964488;28;20057;-75
2020/12/28 07:07:10;;;;;;;16.90;6.38;;;;;;;;;;4965740;28;20082;-75
2020/12/28 07:09:37;;;;;;;15.32;6.63;;;;;;;;;;4970022;28;20086;-75
2020/12/28 07:12:04;;;;;;;14.75;5.90;;;;;;;;;;4969242;28;20054;-75
2020/12/28 07:14:31;;;;;;;16.80;6.68;;;;;;;;;;4972099;28;20077;-76
2020/12/28 07:16:58;;;;;;;18.23;7.05;;;;;;;;;;4971420;28;20078;-76
2020/12/28 07:19:25;;;;;;;15.20;6.57;;;;;;;;;;4962315;28;20133;-76
2020/12/28 07:21:52;;;;;;;12.77;5.88;;;;;;;;;;4971325;28;20045;-76
2020/12/28 07:24:19;;;;;;;15.55;6.57;;;;;;;;;;4972152;28;20052;-76
2020/12/28 07:26:47;;;;;;;14.45;6.20;;;;;;;;;;4971383;28;20059;-76
2020/12/28 07:29:14;;;;;;;16.80;7.38;;;;;;;;;;4966411;28;20138;-76
2020/12/28 07:31:43;;;;;;;15.13;6.40;;;;;;;;;;4971029;28;20145;-76
2020/12/28 07:34:16;;;;;;;15.73;7.28;;;;;;;;;;4970091;28;20047;-76
2020/12/28 07:36:45;;;;;;;15.18;6.65;;;;;;;;;;4969142;28;20070;-76
2020/12/28 07:39:12;;;;;;;16.15;7.53;;;;;;;;;;4967862;28;20496;-76
2020/12/28 07:41:39;;;;;;;16.63;7.40;;;;;;;;;;4963739;28;20079;-76
2020/12/28 07:44:05;;;;;;;17.80;7.70;;;;;;;;;;4971890;28;20138;-76
2020/12/28 07:46:34;;;;;;;15.50;7.72;;;;;;;;;;4965182;28;20054;-76
2020/12/28 07:49:11;;;;;;;18.50;7.55;;;;;;;;;;4974129;28;20078;-76
2020/12/28 07:51:39;;;;;;;10.50;6.22;;;;;;;;;;4968925;28;20093;-76
2020/12/28 07:54:32;;;;;;;18.25;6.72;;;;;;;;;;4971013;28;20077;-76
2020/12/28 07:57:01;;;;;;;13.85;7.35;;;;;;;;;;4971444;28;20047;-76
2020/12/28 07:59:34;;;;;;;14.23;6.95;;;;;;;;;;4968014;28;20467;-76
2020/12/28 08:02:07;;;;;;;12.77;7.03;;;;;;;;;;4970184;28;20209;-76
2020/12/28 08:04:34;;;;;;;12.48;6.63;;;;;;;;;;4971478;28;20141;-75
2020/12/28 08:07:01;;;;;;;17.10;7.05;;;;;;;;;;4971709;28;20129;-76
2020/12/28 08:09:29;;;;;;;17.42;8.25;;;;;;;;;;4970615;28;20054;-76
2020/12/28 08:11:59;;;;;;;15.43;6.78;;;;;;;;;;4964032;28;20075;-76
2020/12/28 08:14:26;;;;;;;13.43;6.72;;;;;;;;;;4961020;28;20489;-75
2020/12/28 08:16:53;;;;;;;22.23;8.07;;;;;;;;;;4968910;28;20050;-76
2020/12/28 08:19:24;;;;;;;12.93;7.10;;;;;;;;;;4970888;28;20488;-76
2020/12/28 08:21:51;;;;;;;14.57;7.10;;;;;;;;;;4971373;28;20050;-76
2020/12/28 08:24:18;;;;;;;18.15;7.40;;;;;;;;;;4971117;28;20125;-76
2020/12/28 08:26:45;;;;;;;15.60;7.05;;;;;;;;;;4971896;28;20133;-76
2020/12/28 08:29:11;;;;;;;15.85;7.90;;;;;;;;;;4971049;28;20607;-76
2020/12/28 08:31:38;;;;;;;14.65;7.10;;;;;;;;;;4967910;28;20137;-76
2020/12/28 08:34:13;;;;;;;15.32;7.22;;;;;;;;;;4963973;28;20492;-76
2020/12/28 08:36:52;;;;;;;16.70;8.18;;;;;;;;;;4967771;28;20058;-76
2020/12/28 08:39:20;;;;;;;15.75;7.13;;;;;;;;;;4964084;28;20082;-76
2020/12/28 08:42:00;;;;;;;13.57;6.53;;;;;;;;;;4969813;28;20129;-76
2020/12/28 08:44:34;;;;;;;14.57;7.43;;;;;;;;;;4971218;28;20092;-75
2020/12/28 08:47:03;;;;;;;13.70;7.30;;;;;;;;;;4969612;28;20476;-76
2020/12/28 08:49:32;;;;;;;17.05;7.20;;;;;;;;;;4969378;28;20090;-75
2020/12/28 08:52:12;;;;;;;13.50;6.85;;;;;;;;;;4967284;28;20542;-76
2020/12/28 08:54:40;;;;;;;16.42;7.80;;;;;;;;;;4970600;28;20067;-75
2020/12/28 08:57:17;;;;;;;14.82;7.70;;;;;;;;;;4952279;28;20055;-76
2020/12/28 08:59:44;;;;;;;16.45;6.82;;;;;;;;;;4949681;29;20054;-76
2020/12/28 09:02:20;;;;;;;16.77;7.53;;;;;;;;;;4950996;28;20048;-76
2020/12/28 09:04:46;;;;;;;16.13;7.03;;;;;;;;;;4968999;28;20145;-76
2020/12/28 09:07:13;;;;;;;14.57;6.82;;;;;;;;;;4966640;28;20133;-76
2020/12/28 09:09:41;;;;;;;14.52;7.13;;;;;;;;;;4974118;28;20082;-75
2020/12/28 09:12:08;;;;;;;13.95;7.15;;;;;;;;;;4974654;28;20149;-75
2020/12/28 09:14:35;;;;;;;17.13;7.70;;;;;;;;;;4969337;28;20138;-76
2020/12/28 09:17:14;;;;;;;22.05;8.57;;;;;;;;;;4972577;28;20082;-75
2020/12/28 09:19:41;;;;;;;15.15;7.30;;;;;;;;;;4974659;28;20100;-76
2020/12/28 09:22:35;;;;;;;16.40;7.03;;;;;;;;;;4972996;28;20181;-76
2020/12/28 09:25:21;;;;;;;14.68;7.30;;;;;;;;;;4959082;28;20089;-76
2020/12/28 09:27:47;;;;;;;24.75;7.88;;;;;;;;;;4965663;28;20134;-75
2020/12/28 09:30:14;;;;;;;15.50;7.60;;;;;;;;;;4973132;28;20078;-76
2020/12/28 09:32:45;;;;;;;16.15;7.97;;;;;;;;;;4976448;28;20093;-79
2020/12/28 09:35:13;;;;;;;17.77;8.38;;;;;;;;;;4973618;28;20109;-80
2020/12/28 09:40:34;;;;;;;14.23;7.28;;;;;;;;;;4971542;28;20055;-79
2020/12/28 09:43:00;;;;;;;15.88;8.23;;;;;;;;;;4975320;28;20534;-84
2020/12/28 09:45:37;;;;;;;17.60;8.15;;;;;;;;;;4977574;28;20129;-80
2020/12/28 09:48:07;;;;;;;20.40;8.45;;;;;;;;;;4973732;28;20055;-79
2020/12/28 09:50:45;;;;;;;14.95;6.88;;;;;;;;;;4973105;28;20113;-79
2020/12/28 09:53:12;;;;;;;26.35;9.52;;;;;;;;;;4976441;28;20050;-80
2020/12/28 09:55:43;;;;;;;17.73;7.85;;;;;;;;;;4976614;28;20056;-82
2020/12/28 09:58:10;;;;;;;18.08;8.30;;;;;;;;;;4963561;28;20134;-84
2020/12/28 10:00:38;;;;;;;16.98;7.78;;;;;;;;;;4963250;28;20051;-81
2020/12/28 10:03:07;;;;;;;14.63;7.40;;;;;;;;;;4964142;28;20365;-80
2020/12/28 10:05:37;;;;;;;15.23;7.40;;;;;;;;;;4969954;28;20121;-81
2020/12/28 10:08:04;;;;;;;15.85;7.47;;;;;;;;;;4975713;28;20055;-82
2020/12/28 10:10:31;;;;;;;13.27;7.68;;;;;;;;;;4968745;28;20058;-77
2020/12/28 10:12:57;;;;;;;17.13;7.95;;;;;;;;;;4967925;28;20047;-79
2020/12/28 10:15:24;;;;;;;14.02;6.90;;;;;;;;;;4969653;28;20142;-77
2020/12/28 10:18:12;;;;;;;15.63;7.72;;;;;;;;;;4970543;28;20054;-79
2020/12/28 10:20:49;;;;;;;14.38;7.35;;;;;;;;;;4959294;28;20058;-79
2020/12/28 10:23:16;;;;;;;16.25;7.38;;;;;;;;;;4968867;28;20038;-79
2020/12/28 10:25:44;;;;;;;14.85;7.45;;;;;;;;;;4953591;29;20058;-78
2020/12/28 10:28:11;;;;;;;14.75;8.23;;;;;;;;;;4970361;28;20070;-77
2020/12/28 10:30:38;;;;;;;14.70;7.50;;;;;;;;;;4964124;28;20055;-78
2020/12/28 10:33:05;;;;;;;14.93;7.40;;;;;;;;;;4961960;28;20078;-77
2020/12/28 10:35:31;;;;;;;17.80;7.50;;;;;;;;;;4962967;28;20130;-79
2020/12/28 10:37:58;;;;;;;13.43;6.80;;;;;;;;;;4968931;28;20411;-77
2020/12/28 10:40:25;;;;;;;15.73;7.47;;;;;;;;;;4969651;28;20571;-77
2020/12/28 10:43:06;;;;;;;10.80;6.18;;;;;;;;;;4959824;28;20049;-75
2020/12/28 10:45:33;;;;;;;13.52;7.00;;;;;;;;;;4968889;28;20174;-76
2020/12/28 10:48:00;;;;;;;20.58;8.48;;;;;;;;;;4970492;28;20055;-75
2020/12/28 10:50:27;;;;;;;16.48;7.32;;;;;;;;;;4965804;28;20047;-77
2020/12/28 10:52:53;;;;;;;16.42;7.63;;;;;;;;;;4956351;28;20126;-78
2020/12/28 10:55:20;;;;;;;16.75;8.18;;;;;;;;;;4973287;28;20097;-76
2020/12/28 10:57:47;;;;;;;14.95;7.50;;;;;;;;;;4965438;28;20137;-78
2020/12/28 11:00:13;;;;;;;15.55;7.20;;;;;;;;;;4971424;28;20097;-77
2020/12/28 11:02:41;;;;;;;14.23;6.97;;;;;;;;;;4960538;28;20043;-77
2020/12/28 11:05:08;;;;;;;12.98;6.82;;;;;;;;;;4959814;28;20134;-78
2020/12/28 11:07:34;;;;;;;15.48;7.65;;;;;;;;;;4968099;28;20142;-78
2020/12/28 11:10:01;;;;;;;15.13;7.32;;;;;;;;;;4968044;28;20047;-78
2020/12/28 11:12:28;;;;;;;12.18;7.47;;;;;;;;;;4957403;28;20512;-78
2020/12/28 11:14:54;;;;;;;19.17;7.45;;;;;;;;;;4966706;28;20105;-79
2020/12/28 11:17:21;;;;;;;17.38;7.68;;;;;;;;;;4974528;28;20054;-80
2020/12/28 11:19:48;;;;;;;11.32;6.70;;;;;;;;;;4953915;28;20047;-79
2020/12/28 11:22:15;;;;;;;13.95;7.50;;;;;;;;;;4958607;28;20051;-80
2020/12/28 11:24:42;;;;;;;11.40;6.65;;;;;;;;;;4998111;28;20042;-84
2020/12/28 11:27:10;;;;;;;15.63;7.47;;;;;;;;;;4990327;28;20062;-83
2020/12/28 11:29:38;;;;;;;12.27;6.47;;;;;;;;;;4971770;28;20079;-79
2020/12/28 11:32:04;;;;;;;13.27;6.97;;;;;;;;;;4971496;28;20141;-79
2020/12/28 11:34:39;;;;;;;15.50;6.57;;;;;;;;;;4974019;28;20050;-79
2020/12/28 11:37:06;;;;;;;12.13;6.40;;;;;;;;;;4974450;28;20043;-79
2020/12/28 11:39:34;;;;;;;13.27;6.63;;;;;;;;;;4964102;28;20047;-82
2020/12/28 11:42:08;;;;;;;15.80;7.88;;;;;;;;;;4965089;28;20043;-82
2020/12/28 11:44:36;;;;;;;11.88;6.53;;;;;;;;;;4970859;28;20054;-81
2020/12/28 11:47:04;;;;;;;14.85;7.45;;;;;;;;;;4971627;28;20133;-82
2020/12/28 11:49:34;;;;;;;15.73;6.75;;;;;;;;;;4974145;28;20074;-81
2020/12/28 11:52:00;;;;;;;23.45;8.02;;;;;;;;;;4973259;28;20146;-83
2020/12/28 11:54:27;;;;;;;15.45;6.43;;;;;;;;;;4973910;28;20514;-81
2020/12/28 11:56:54;;;;;;;13.40;7.50;;;;;;;;;;4973125;28;20801;-79
2020/12/28 11:59:21;;;;;;;13.75;7.30;;;;;;;;;;4973008;28;20090;-80
2020/12/28 12:01:49;;;;;;;13.55;6.60;;;;;;;;;;4968832;28;20062;-79
2020/12/28 12:04:48;;;;;;;12.45;6.70;;;;;;;;;;4967826;28;20133;-79
2020/12/28 12:07:11;;;;;;;32.80;9.13;;;;;;;;;;4964728;28;20137;-79
2020/12/28 12:09:38;;;;;;;15.93;7.80;;;;;;;;;;4957400;28;20051;-78
2020/12/28 12:12:04;;;;;;;12.25;6.80;;;;;;;;;;4952659;29;20712;-79
2020/12/28 12:14:35;;;;;;;12.55;6.75;;;;;;;;;;4953943;28;20183;-79
2020/12/28 12:17:10;;;;;;;11.75;6.40;;;;;;;;;;4971357;28;20093;-79
2020/12/28 12:19:37;;;;;;;11.95;6.25;;;;;;;;;;4961980;28;20082;-79
2020/12/28 12:22:05;;;;;;;13.55;6.50;;;;;;;;;;4971630;28;20508;-78
2020/12/28 12:25:13;;;;;;;15.65;7.05;;;;;;;;;;4975799;28;20498;-81
2020/12/28 12:27:50;;;;;;;13.25;7.15;;;;;;;;;;4972468;28;20066;-81
2020/12/28 12:30:17;;;;;;;12.20;6.60;;;;;;;;;;4973071;28;20074;-81
2020/12/28 12:32:47;;;;;;;16.90;7.95;;;;;;;;;;4965905;28;20093;-82
2020/12/28 12:35:14;;;;;;;12.38;6.50;;;;;;;;;;4971811;28;20127;-80
2020/12/28 12:37:42;;;;;;;15.57;6.40;;;;;;;;;;4970911;28;20086;-80
2020/12/28 12:40:09;;;;;;;13.35;6.55;;;;;;;;;;4972801;28;20055;-80
2020/12/28 12:42:36;;;;;;;14.35;7.28;;;;;;;;;;4966138;28;20082;-80
2020/12/28 12:45:03;;;;;;;20.83;8.15;;;;;;;;;;4970000;28;20130;-80
2020/12/28 12:47:30;;;;;;;11.32;6.38;;;;;;;;;;4971775;28;20051;-80
2020/12/28 12:50:00;;;;;;;11.13;6.57;;;;;;;;;;4968626;28;20061;-81
2020/12/28 12:52:29;;;;;;;17.63;7.20;;;;;;;;;;4971071;28;20539;-80
2020/12/28 12:54:55;;;;;;;11.77;6.35;;;;;;;;;;4970136;28;20427;-80
2020/12/28 12:57:22;;;;;;;13.70;6.75;;;;;;;;;;4975758;23;20505;-79
2020/12/28 13:00:02;;;;;;;15.15;7.53;;;;;;;;;;4960923;28;20657;-78
2020/12/28 13:02:29;;;;;;;12.05;6.72;;;;;;;;;;4950442;28;20067;-78
2020/12/28 13:05:07;;;;;;;13.63;6.80;;;;;;;;;;4943162;28;20078;-78
2020/12/28 13:07:34;;;;;;;13.68;6.70;;;;;;;;;;4963098;28;20055;-78
2020/12/28 13:10:01;;;;;;;13.15;6.55;;;;;;;;;;4953463;28;20125;-78
2020/12/28 13:12:28;;;;;;;17.98;6.75;;;;;;;;;;4956534;28;20130;-78
2020/12/28 13:14:55;;;;;;;15.85;7.35;;;;;;;;;;4969029;28;20074;-78
2020/12/28 13:17:22;;;;;;;14.68;7.20;;;;;;;;;;4949626;28;20052;-78
2020/12/28 13:19:49;;;;;;;15.88;7.70;;;;;;;;;;4943850;28;20130;-78
2020/12/28 13:22:17;;;;;;;13.63;7.10;;;;;;;;;;4950628;28;20389;-78
2020/12/28 13:24:45;;;;;;;29.13;9.90;;;;;;;;;;4966828;28;20106;-78
2020/12/28 13:27:12;;;;;;;18.52;8.68;;;;;;;;;;4943810;28;20094;-78
2020/12/28 13:29:48;;;;;;;13.30;6.95;;;;;;;;;;4963395;28;20129;-78
2020/12/28 13:32:15;;;;;;;14.13;7.65;;;;;;;;;;4940221;29;20047;-79
2020/12/28 13:34:42;;;;;;;14.15;7.50;;;;;;;;;;4956911;28;20049;-78
2020/12/28 13:37:10;;;;;;;15.27;7.97;;;;;;;;;;4964899;28;20043;-78
2020/12/28 13:39:40;;;;;;;23.58;8.68;;;;;;;;;;4959713;28;20053;-78
2020/12/28 13:42:07;;;;;;;18.52;7.10;;;;;;;;;;4960552;28;20098;-78
2020/12/28 13:44:34;;;;;;;13.68;7.60;;;;;;;;;;4955256;28;20079;-79
2020/12/28 13:47:01;;;;;;;12.50;6.95;;;;;;;;;;4957888;28;20078;-77
2020/12/28 13:49:28;;;;;;;16.30;7.53;;;;;;;;;;4950946;28;20051;-78
2020/12/28 13:51:56;;;;;;;15.07;8.00;;;;;;;;;;4963452;28;20054;-77
2020/12/28 13:54:23;;;;;;;14.02;7.65;;;;;;;;;;4944061;29;20047;-78
2020/12/28 13:56:53;;;;;;;16.52;7.95;;;;;;;;;;4942566;28;20077;-78
2020/12/28 13:59:20;;;;;;;15.50;7.75;;;;;;;;;;4933955;29;20154;-77
2020/12/28 14:01:51;;;;;;;19.35;8.57;;;;;;;;;;4933727;29;20098;-78
2020/12/28 14:04:18;;;;;;;18.67;7.55;;;;;;;;;;4953151;29;20051;-78
2020/12/28 14:06:45;;;;;;;20.35;7.47;;;;;;;;;;4960123;28;20137;-78
2020/12/28 14:09:14;;;;;;;16.73;8.52;;;;;;;;;;4945253;28;20559;-78
2020/12/28 14:11:42;;;;;;;14.82;8.00;;;;;;;;;;4941446;28;20071;-79
2020/12/28 14:14:08;;;;;;;12.05;6.78;;;;;;;;;;4935574;29;20083;-78
2020/12/28 14:16:38;;;;;;;13.82;7.45;;;;;;;;;;4936972;29;20083;-79
2020/12/28 14:19:04;;;;;;;18.42;7.95;;;;;;;;;;4935257;29;20143;-79
2020/12/28 14:21:34;;;;;;;13.48;7.10;;;;;;;;;;4944807;29;20081;-80
2020/12/28 14:24:01;;;;;;;15.80;7.30;;;;;;;;;;4933766;29;20457;-77
2020/12/28 14:26:30;;;;;;;105.47;18.20;;;;;;;;;;4938565;29;20075;-78
2020/12/28 14:28:57;;;;;;;98.90;17.33;;;;;;;;;;4953544;28;20054;-77
2020/12/28 14:31:24;;;;;;;23.85;7.80;;;;;;;;;;4941015;28;20056;-80
2020/12/28 14:33:50;;;;;;;17.65;8.30;;;;;;;;;;4951112;28;20129;-81
2020/12/28 14:36:22;;;;;;;14.95;7.40;;;;;;;;;;4958488;28;20461;-82
2020/12/28 14:38:49;;;;;;;18.77;7.90;;;;;;;;;;4952190;29;20473;-79
2020/12/28 14:41:17;;;;;;;14.30;7.65;;;;;;;;;;4952982;28;20074;-79
2020/12/28 14:43:45;;;;;;;17.05;8.20;;;;;;;;;;4961765;28;20121;-79